sensor_id;sensor_type;location;lat;lon;timestamp;pressure;altitude;pressure_sealevel;temperature;humidity
43155;BME280;34212;51.018;13.586;2024-01-16T00:00:55;96388.38;;;1.94;89.22
43155;BME280;34212;51.018;13.586;2024-01-16T00:05:56;96387.22;;;1.97;88.77
43155;BME280;34212;51.018;13.586;2024-01-16T00:10:58;96380.31;;;1.96;89.36
43155;BME280;34212;51.018;13.586;2024-01-16T00:16:01;96386.41;;;1.96;89.06
43155;BME280;34212;51.018;13.586;2024-01-16T00:21:04;96386.88;;;1.92;89.13
43155;BME280;34212;51.018;13.586;2024-01-16T00:26:05;96395.59;;;1.92;89.09
43155;BME280;34212;51.018;13.586;2024-01-16T00:31:07;96393.63;;;1.94;88.85
43155;BME280;34212;51.018;13.586;2024-01-16T00:36:09;96405.78;;;1.95;88.96
43155;BME280;34212;51.018;13.586;2024-01-16T00:41:12;96410.09;;;1.96;89.05
43155;BME280;34212;51.018;13.586;2024-01-16T00:46:15;96423.88;;;1.98;88.76
43155;BME280;34212;51.018;13.586;2024-01-16T00:51:17;96418.47;;;2.00;88.45
43155;BME280;34212;51.018;13.586;2024-01-16T00:56:18;96428.97;;;2.00;88.89
43155;BME280;34212;51.018;13.586;2024-01-16T01:01:20;96433.41;;;1.99;89.04
43155;BME280;34212;51.018;13.586;2024-01-16T01:06:22;96425.34;;;2.01;88.70
43155;BME280;34212;51.018;13.586;2024-01-16T01:11:23;96448.03;;;2.02;88.66
43155;BME280;34212;51.018;13.586;2024-01-16T01:16:25;96456.91;;;2.01;88.52
43155;BME280;34212;51.018;13.586;2024-01-16T01:21:26;96463.00;;;2.01;88.70
43155;BME280;34212;51.018;13.586;2024-01-16T01:26:28;96465.47;;;2.03;88.23
43155;BME280;34212;51.018;13.586;2024-01-16T01:31:29;96479.59;;;2.02;88.97
43155;BME280;34212;51.018;13.586;2024-01-16T01:36:31;96478.63;;;2.03;88.60
43155;BME280;34212;51.018;13.586;2024-01-16T01:41:32;96481.25;;;2.03;88.77
43155;BME280;34212;51.018;13.586;2024-01-16T01:46:34;96483.72;;;2.04;88.50
43155;BME280;34212;51.018;13.586;2024-01-16T01:51:36;96492.41;;;2.05;88.38
43155;BME280;34212;51.018;13.586;2024-01-16T01:56:39;96477.63;;;2.04;88.19
43155;BME280;34212;51.018;13.586;2024-01-16T02:01:45;96481.91;;;2.05;88.24
43155;BME280;34212;51.018;13.586;2024-01-16T02:06:46;96486.50;;;2.03;88.28
43155;BME280;34212;51.018;13.586;2024-01-16T02:11:48;96501.44;;;2.02;88.54
43155;BME280;34212;51.018;13.586;2024-01-16T02:16:49;96502.75;;;1.98;88.61
43155;BME280;34212;51.018;13.586;2024-01-16T02:21:54;96509.50;;;2.01;89.02
43155;BME280;34212;51.018;13.586;2024-01-16T02:27:00;96520.03;;;2.01;88.97
43155;BME280;34212;51.018;13.586;2024-01-16T02:32:01;96515.09;;;1.98;88.84
43155;BME280;34212;51.018;13.586;2024-01-16T02:37:04;96526.59;;;1.97;88.82
43155;BME280;34212;51.018;13.586;2024-01-16T02:42:06;96539.75;;;1.97;88.94
43155;BME280;34212;51.018;13.586;2024-01-16T02:47:07;96553.84;;;1.96;89.29
43155;BME280;34212;51.018;13.586;2024-01-16T02:52:09;96557.94;;;1.90;89.08
43155;BME280;34212;51.018;13.586;2024-01-16T02:57:10;96556.13;;;1.91;89.50
43155;BME280;34212;51.018;13.586;2024-01-16T03:02:12;96563.34;;;1.89;89.22
43155;BME280;34212;51.018;13.586;2024-01-16T03:07:14;96573.88;;;1.89;89.22
43155;BME280;34212;51.018;13.586;2024-01-16T03:12:16;96582.44;;;1.91;89.44
43155;BME280;34212;51.018;13.586;2024-01-16T03:17:17;96580.75;;;1.90;89.46
43155;BME280;34212;51.018;13.586;2024-01-16T03:22:19;96580.44;;;1.93;89.56
43155;BME280;34212;51.018;13.586;2024-01-16T03:27:20;96588.50;;;1.91;88.95
43155;BME280;34212;51.018;13.586;2024-01-16T03:32:22;96583.25;;;1.91;89.51
43155;BME280;34212;51.018;13.586;2024-01-16T03:37:23;96589.63;;;1.89;89.53
43155;BME280;34212;51.018;13.586;2024-01-16T03:42:25;96588.00;;;1.88;89.50
43155;BME280;34212;51.018;13.586;2024-01-16T03:47:26;96596.84;;;1.87;89.00
43155;BME280;34212;51.018;13.586;2024-01-16T03:52:28;96587.31;;;1.85;89.23
43155;BME280;34212;51.018;13.586;2024-01-16T03:57:30;96594.84;;;1.80;89.52
43155;BME280;34212;51.018;13.586;2024-01-16T04:02:31;96596.00;;;1.78;89.58
43155;BME280;34212;51.018;13.586;2024-01-16T04:07:33;96620.47;;;1.78;89.91
43155;BME280;34212;51.018;13.586;2024-01-16T04:12:35;96625.56;;;1.80;89.72
43155;BME280;34212;51.018;13.586;2024-01-16T04:17:37;96634.56;;;1.77;89.47
43155;BME280;34212;51.018;13.586;2024-01-16T04:22:38;96628.81;;;1.74;89.76
43155;BME280;34212;51.018;13.586;2024-01-16T04:27:40;96664.09;;;1.71;89.91
43155;BME280;34212;51.018;13.586;2024-01-16T04:32:42;96653.88;;;1.68;89.50
43155;BME280;34212;51.018;13.586;2024-01-16T04:37:43;96652.56;;;1.64;89.44
43155;BME280;34212;51.018;13.586;2024-01-16T04:42:45;96649.63;;;1.67;89.99
43155;BME280;34212;51.018;13.586;2024-01-16T04:47:46;96659.00;;;1.70;89.82
43155;BME280;34212;51.018;13.586;2024-01-16T04:52:48;96674.63;;;1.71;89.65
43155;BME280;34212;51.018;13.586;2024-01-16T04:57:54;96667.09;;;1.76;89.77
43155;BME280;34212;51.018;13.586;2024-01-16T05:02:56;96671.06;;;1.80;90.08
43155;BME280;34212;51.018;13.586;2024-01-16T05:08:00;96666.34;;;1.84;89.49
43155;BME280;34212;51.018;13.586;2024-01-16T05:13:02;96678.00;;;1.81;89.33
43155;BME280;34212;51.018;13.586;2024-01-16T05:18:04;96680.47;;;1.83;89.09
43155;BME280;34212;51.018;13.586;2024-01-16T05:23:05;96675.38;;;1.81;89.01
43155;BME280;34212;51.018;13.586;2024-01-16T05:28:07;96676.34;;;1.80;89.30
43155;BME280;34212;51.018;13.586;2024-01-16T05:33:08;96698.34;;;1.79;88.95
43155;BME280;34212;51.018;13.586;2024-01-16T05:38:10;96693.78;;;1.81;88.80
43155;BME280;34212;51.018;13.586;2024-01-16T05:43:13;96698.03;;;1.82;88.92
43155;BME280;34212;51.018;13.586;2024-01-16T05:48:16;96696.22;;;1.83;88.75
43155;BME280;34212;51.018;13.586;2024-01-16T05:53:17;96697.34;;;1.80;89.16
43155;BME280;34212;51.018;13.586;2024-01-16T05:58:19;96702.63;;;1.80;88.57
43155;BME280;34212;51.018;13.586;2024-01-16T06:03:20;96707.88;;;1.80;88.48
43155;BME280;34212;51.018;13.586;2024-01-16T06:08:22;96722.53;;;1.83;88.96
43155;BME280;34212;51.018;13.586;2024-01-16T06:13:23;96733.72;;;1.85;88.41
43155;BME280;34212;51.018;13.586;2024-01-16T06:18:25;96729.00;;;1.89;88.63
43155;BME280;34212;51.018;13.586;2024-01-16T06:23:27;96751.31;;;1.84;88.67
43155;BME280;34212;51.018;13.586;2024-01-16T06:28:28;96748.00;;;1.82;88.76
43155;BME280;34212;51.018;13.586;2024-01-16T06:33:30;96738.31;;;1.83;88.48
43155;BME280;34212;51.018;13.586;2024-01-16T06:38:31;96747.69;;;1.85;88.40
43155;BME280;34212;51.018;13.586;2024-01-16T06:43:33;96772.88;;;1.88;88.63
43155;BME280;34212;51.018;13.586;2024-01-16T06:48:35;96760.84;;;1.85;88.53
43155;BME280;34212;51.018;13.586;2024-01-16T06:53:38;96775.94;;;1.83;88.55
43155;BME280;34212;51.018;13.586;2024-01-16T06:58:40;96777.59;;;1.84;88.38
43155;BME280;34212;51.018;13.586;2024-01-16T07:03:41;96782.03;;;1.84;88.67
43155;BME280;34212;51.018;13.586;2024-01-16T07:08:43;96787.28;;;1.84;88.53
43155;BME280;34212;51.018;13.586;2024-01-16T07:13:46;96810.09;;;1.83;88.46
43155;BME280;34212;51.018;13.586;2024-01-16T07:18:47;96817.69;;;1.87;88.48
43155;BME280;34212;51.018;13.586;2024-01-16T07:23:50;96824.63;;;1.88;88.03
43155;BME280;34212;51.018;13.586;2024-01-16T07:28:52;96840.41;;;1.88;88.43
43155;BME280;34212;51.018;13.586;2024-01-16T07:33:53;96840.41;;;1.88;88.41
43155;BME280;34212;51.018;13.586;2024-01-16T07:38:55;96867.50;;;1.88;88.39
43155;BME280;34212;51.018;13.586;2024-01-16T07:43:57;96861.44;;;1.88;88.26
43155;BME280;34212;51.018;13.586;2024-01-16T07:48:58;96866.69;;;1.88;88.41
43155;BME280;34212;51.018;13.586;2024-01-16T07:54:07;96881.47;;;1.89;88.27
43155;BME280;34212;51.018;13.586;2024-01-16T07:59:09;96879.69;;;1.89;88.36
43155;BME280;34212;51.018;13.586;2024-01-16T08:04:11;96889.06;;;1.92;88.38
43155;BME280;34212;51.018;13.586;2024-01-16T08:09:12;96901.09;;;1.94;88.24
43155;BME280;34212;51.018;13.586;2024-01-16T08:14:15;96909.81;;;1.95;88.10
43155;BME280;34212;51.018;13.586;2024-01-16T08:19:16;96916.72;;;1.96;88.35
43155;BME280;34212;51.018;13.586;2024-01-16T08:24:18;96912.84;;;2.00;88.09
43155;BME280;34212;51.018;13.586;2024-01-16T08:29:20;96910.34;;;1.98;87.81
43155;BME280;34212;51.018;13.586;2024-01-16T08:34:21;96906.19;;;1.96;87.49
43155;BME280;34212;51.018;13.586;2024-01-16T08:39:23;96910.22;;;2.00;88.11
43155;BME280;34212;51.018;13.586;2024-01-16T08:44:25;96915.19;;;2.03;88.12
43155;BME280;34212;51.018;13.586;2024-01-16T08:49:27;96910.44;;;2.06;88.31
43155;BME280;34212;51.018;13.586;2024-01-16T08:54:28;96914.41;;;2.11;88.38
43155;BME280;34212;51.018;13.586;2024-01-16T08:59:30;96931.56;;;2.15;88.78
43155;BME280;34212;51.018;13.586;2024-01-16T09:04:31;96923.22;;;2.19;88.52
43155;BME280;34212;51.018;13.586;2024-01-16T09:09:33;96930.44;;;2.17;88.34
43155;BME280;34212;51.018;13.586;2024-01-16T09:14:35;96930.91;;;2.13;88.64
43155;BME280;34212;51.018;13.586;2024-01-16T09:19:36;96927.44;;;2.12;88.08
43155;BME280;34212;51.018;13.586;2024-01-16T09:24:38;96944.03;;;2.13;88.23
43155;BME280;34212;51.018;13.586;2024-01-16T09:29:39;96952.88;;;2.12;88.06
43155;BME280;34212;51.018;13.586;2024-01-16T09:34:41;96945.84;;;2.12;87.92
43155;BME280;34212;51.018;13.586;2024-01-16T09:39:43;96948.31;;;2.14;87.61
43155;BME280;34212;51.018;13.586;2024-01-16T09:44:44;96945.69;;;2.14;88.11
43155;BME280;34212;51.018;13.586;2024-01-16T09:49:46;96947.88;;;2.18;88.56
43155;BME280;34212;51.018;13.586;2024-01-16T09:54:49;96957.44;;;2.19;88.36
43155;BME280;34212;51.018;13.586;2024-01-16T09:59:52;96944.28;;;2.19;88.19
43155;BME280;34212;51.018;13.586;2024-01-16T10:04:53;96945.25;;;2.18;88.22
43155;BME280;34212;51.018;13.586;2024-01-16T10:09:58;96946.22;;;2.17;88.12
43155;BME280;34212;51.018;13.586;2024-01-16T10:15:00;96948.84;;;2.17;88.37
43155;BME280;34212;51.018;13.586;2024-01-16T10:20:02;96949.66;;;2.18;88.42
43155;BME280;34212;51.018;13.586;2024-01-16T10:25:07;96946.09;;;2.19;88.61
43155;BME280;34212;51.018;13.586;2024-01-16T10:30:13;96956.16;;;2.23;88.70
43155;BME280;34212;51.018;13.586;2024-01-16T10:35:15;96961.41;;;2.23;88.64
43155;BME280;34212;51.018;13.586;2024-01-16T10:40:24;96955.03;;;2.26;88.48
43155;BME280;34212;51.018;13.586;2024-01-16T10:45:33;96974.56;;;2.23;88.76
43155;BME280;34212;51.018;13.586;2024-01-16T10:50:36;96969.75;;;2.19;88.55
43155;BME280;34212;51.018;13.586;2024-01-16T10:55:51;96964.63;;;2.17;88.21
43155;BME280;34212;51.018;13.586;2024-01-16T11:00:54;96966.97;;;2.20;88.46
43155;BME280;34212;51.018;13.586;2024-01-16T11:05:57;96961.13;;;2.26;88.65
43155;BME280;34212;51.018;13.586;2024-01-16T11:11:00;96954.22;;;2.25;88.42
43155;BME280;34212;51.018;13.586;2024-01-16T11:16:03;96958.94;;;2.22;88.79
43155;BME280;34212;51.018;13.586;2024-01-16T11:21:12;96960.06;;;2.19;88.95
43155;BME280;34212;51.018;13.586;2024-01-16T11:31:35;96954.28;;;2.16;89.07
43155;BME280;34212;51.018;13.586;2024-01-16T11:47:00;96957.19;;;2.13;89.04
43155;BME280;34212;51.018;13.586;2024-01-16T11:52:02;96939.59;;;2.13;88.92
43155;BME280;34212;51.018;13.586;2024-01-16T11:57:21;96948.19;;;2.15;88.55
43155;BME280;34212;51.018;13.586;2024-01-16T12:02:51;96947.34;;;2.15;89.00
43155;BME280;34212;51.018;13.586;2024-01-16T12:07:53;96949.97;;;2.15;88.71
43155;BME280;34212;51.018;13.586;2024-01-16T12:12:57;96948.19;;;2.15;89.05
43155;BME280;34212;51.018;13.586;2024-01-16T12:18:04;96955.09;;;2.16;89.06
43155;BME280;34212;51.018;13.586;2024-01-16T12:23:07;96946.69;;;2.13;88.61
43155;BME280;34212;51.018;13.586;2024-01-16T12:28:08;96944.88;;;2.13;89.35
43155;BME280;34212;51.018;13.586;2024-01-16T12:33:24;96951.25;;;2.11;88.55
43155;BME280;34212;51.018;13.586;2024-01-16T12:38:25;96943.50;;;2.09;88.20
43155;BME280;34212;51.018;13.586;2024-01-16T12:43:27;96944.63;;;2.06;88.59
43155;BME280;34212;51.018;13.586;2024-01-16T12:48:29;96941.84;;;2.08;88.50
43155;BME280;34212;51.018;13.586;2024-01-16T12:53:31;96934.34;;;2.13;88.18
43155;BME280;34212;51.018;13.586;2024-01-16T12:58:34;96931.13;;;2.19;88.50
43155;BME280;34212;51.018;13.586;2024-01-16T13:03:36;96929.84;;;2.23;89.22
43155;BME280;34212;51.018;13.586;2024-01-16T13:08:38;96929.53;;;2.26;88.50
43155;BME280;34212;51.018;13.586;2024-01-16T13:13:39;96932.69;;;2.30;88.99
43155;BME280;34212;51.018;13.586;2024-01-16T13:18:42;96925.31;;;2.34;88.86
43155;BME280;34212;51.018;13.586;2024-01-16T13:23:44;96929.34;;;2.38;88.98
43155;BME280;34212;51.018;13.586;2024-01-16T13:28:47;96931.66;;;2.41;88.74
43155;BME280;34212;51.018;13.586;2024-01-16T13:33:49;96925.28;;;2.43;88.94
43155;BME280;34212;51.018;13.586;2024-01-16T13:38:51;96925.13;;;2.45;88.99
43155;BME280;34212;51.018;13.586;2024-01-16T13:43:52;96929.63;;;2.52;89.05
43155;BME280;34212;51.018;13.586;2024-01-16T13:48:54;96932.31;;;2.61;88.76
43155;BME280;34212;51.018;13.586;2024-01-16T13:53:55;96935.34;;;2.66;88.70
43155;BME280;34212;51.018;13.586;2024-01-16T13:58:58;96947.38;;;2.68;89.23
43155;BME280;34212;51.018;13.586;2024-01-16T14:04:00;96934.22;;;2.68;88.74
43155;BME280;34212;51.018;13.586;2024-01-16T14:09:02;96925.34;;;2.69;89.39
43155;BME280;34212;51.018;13.586;2024-01-16T14:14:04;96922.00;;;2.67;89.14
43155;BME280;34212;51.018;13.586;2024-01-16T14:19:06;96925.94;;;2.63;88.86
43155;BME280;34212;51.018;13.586;2024-01-16T14:24:08;96932.63;;;2.58;88.76
43155;BME280;34212;51.018;13.586;2024-01-16T14:29:11;96931.28;;;2.53;89.08
43155;BME280;34212;51.018;13.586;2024-01-16T14:34:12;96938.50;;;2.51;88.63
43155;BME280;34212;51.018;13.586;2024-01-16T14:39:14;96931.88;;;2.47;88.71
43155;BME280;34212;51.018;13.586;2024-01-16T14:44:19;96929.38;;;2.46;88.57
43155;BME280;34212;51.018;13.586;2024-01-16T14:49:21;96934.81;;;2.44;87.98
43155;BME280;34212;51.018;13.586;2024-01-16T14:54:23;96937.75;;;2.41;87.86
43155;BME280;34212;51.018;13.586;2024-01-16T14:59:24;96924.72;;;2.40;87.68
43155;BME280;34212;51.018;13.586;2024-01-16T15:04:26;96932.91;;;2.37;87.97
43155;BME280;34212;51.018;13.586;2024-01-16T15:09:28;96932.25;;;2.35;87.60
43155;BME280;34212;51.018;13.586;2024-01-16T15:14:29;96939.78;;;2.29;87.22
43155;BME280;34212;51.018;13.586;2024-01-16T15:19:31;96930.53;;;2.25;87.04
43155;BME280;34212;51.018;13.586;2024-01-16T15:24:32;96942.84;;;2.25;86.99
43155;BME280;34212;51.018;13.586;2024-01-16T15:29:34;96937.31;;;2.28;87.52
43155;BME280;34212;51.018;13.586;2024-01-16T15:34:36;96940.59;;;2.30;87.25
43155;BME280;34212;51.018;13.586;2024-01-16T15:39:38;96942.41;;;2.29;86.95
43155;BME280;34212;51.018;13.586;2024-01-16T15:44:40;96942.41;;;2.29;86.99
43155;BME280;34212;51.018;13.586;2024-01-16T15:49:42;96938.94;;;2.29;86.98
43155;BME280;34212;51.018;13.586;2024-01-16T15:54:43;96941.75;;;2.27;86.79
43155;BME280;34212;51.018;13.586;2024-01-16T15:59:45;96936.47;;;2.27;86.61
43155;BME280;34212;51.018;13.586;2024-01-16T16:04:46;96946.69;;;2.30;86.55
43155;BME280;34212;51.018;13.586;2024-01-16T16:09:48;96944.03;;;2.30;86.34
43155;BME280;34212;51.018;13.586;2024-01-16T16:14:49;96951.94;;;2.30;86.47
43155;BME280;34212;51.018;13.586;2024-01-16T16:19:51;96961.22;;;2.35;86.89
43155;BME280;34212;51.018;13.586;2024-01-16T16:24:54;96964.78;;;2.34;86.73
43155;BME280;34212;51.018;13.586;2024-01-16T16:29:56;96952.91;;;2.29;86.42
43155;BME280;34212;51.018;13.586;2024-01-16T16:34:58;96963.09;;;2.24;86.55
43155;BME280;34212;51.018;13.586;2024-01-16T16:40:00;96958.94;;;2.22;87.07
43155;BME280;34212;51.018;13.586;2024-01-16T16:45:01;96968.47;;;2.23;87.31
43155;BME280;34212;51.018;13.586;2024-01-16T16:50:03;96968.34;;;2.24;87.36
43155;BME280;34212;51.018;13.586;2024-01-16T16:55:07;96962.09;;;2.25;87.05
43155;BME280;34212;51.018;13.586;2024-01-16T17:00:09;96967.19;;;2.27;87.19
43155;BME280;34212;51.018;13.586;2024-01-16T17:05:10;96973.31;;;2.27;87.41
43155;BME280;34212;51.018;13.586;2024-01-16T17:10:12;96975.94;;;2.27;87.10
43155;BME280;34212;51.018;13.586;2024-01-16T17:15:14;96974.44;;;2.25;87.26
43155;BME280;34212;51.018;13.586;2024-01-16T17:20:15;96974.19;;;2.18;86.48
43155;BME280;34212;51.018;13.586;2024-01-16T17:25:17;96978.38;;;2.11;85.95
43155;BME280;34212;51.018;13.586;2024-01-16T17:30:18;96968.06;;;2.00;85.62
43155;BME280;34212;51.018;13.586;2024-01-16T17:35:20;96961.06;;;1.91;85.14
43155;BME280;34212;51.018;13.586;2024-01-16T17:40:23;96970.47;;;1.83;85.12
43155;BME280;34212;51.018;13.586;2024-01-16T17:45:25;96963.91;;;1.70;84.84
43155;BME280;34212;51.018;13.586;2024-01-16T17:50:27;96962.31;;;1.59;85.08
43155;BME280;34212;51.018;13.586;2024-01-16T17:55:29;96960.91;;;1.55;85.48
43155;BME280;34212;51.018;13.586;2024-01-16T18:00:34;96958.88;;;1.49;85.54
43155;BME280;34212;51.018;13.586;2024-01-16T18:05:36;96974.38;;;1.42;85.93
43155;BME280;34212;51.018;13.586;2024-01-16T18:10:38;96979.22;;;1.37;85.50
43155;BME280;34212;51.018;13.586;2024-01-16T18:15:40;96977.31;;;1.29;85.46
43155;BME280;34212;51.018;13.586;2024-01-16T18:20:42;96982.44;;;1.21;84.74
43155;BME280;34212;51.018;13.586;2024-01-16T18:25:44;96991.16;;;1.12;84.82
43155;BME280;34212;51.018;13.586;2024-01-16T18:30:48;96985.28;;;1.00;84.07
43155;BME280;34212;51.018;13.586;2024-01-16T18:35:49;96995.34;;;0.95;84.51
43155;BME280;34212;51.018;13.586;2024-01-16T18:40:51;96987.91;;;0.90;84.39
43155;BME280;34212;51.018;13.586;2024-01-16T18:45:53;96995.09;;;0.88;84.09
43155;BME280;34212;51.018;13.586;2024-01-16T18:50:55;96985.00;;;0.94;83.90
43155;BME280;34212;51.018;13.586;2024-01-16T18:55:57;96980.16;;;0.99;83.42
43155;BME280;34212;51.018;13.586;2024-01-16T19:00:59;96984.84;;;1.05;83.74
43155;BME280;34212;51.018;13.586;2024-01-16T19:06:04;96980.13;;;1.08;83.58
43155;BME280;34212;51.018;13.586;2024-01-16T19:11:14;96984.28;;;1.11;83.22
43155;BME280;34212;51.018;13.586;2024-01-16T19:16:16;96988.69;;;1.10;82.76
43155;BME280;34212;51.018;13.586;2024-01-16T19:21:18;96992.31;;;1.09;82.44
43155;BME280;34212;51.018;13.586;2024-01-16T19:26:19;96985.38;;;1.08;82.31
43155;BME280;34212;51.018;13.586;2024-01-16T19:31:22;96981.22;;;1.06;82.25
43155;BME280;34212;51.018;13.586;2024-01-16T19:36:23;96984.84;;;1.05;81.78
43155;BME280;34212;51.018;13.586;2024-01-16T19:41:24;96975.44;;;1.02;81.69
43155;BME280;34212;51.018;13.586;2024-01-16T19:46:27;96975.88;;;0.98;81.45
43155;BME280;34212;51.018;13.586;2024-01-16T19:51:28;96977.66;;;0.97;81.25
43155;BME280;34212;51.018;13.586;2024-01-16T19:56:31;96971.59;;;0.97;81.31
43155;BME280;34212;51.018;13.586;2024-01-16T20:01:33;96967.16;;;0.97;81.39
43155;BME280;34212;51.018;13.586;2024-01-16T20:06:34;96962.19;;;0.94;81.65
43155;BME280;34212;51.018;13.586;2024-01-16T20:11:36;96958.88;;;0.92;81.18
43155;BME280;34212;51.018;13.586;2024-01-16T20:16:38;96951.44;;;0.87;81.20
43155;BME280;34212;51.018;13.586;2024-01-16T20:21:40;96953.38;;;0.85;80.92
43155;BME280;34212;51.018;13.586;2024-01-16T20:26:45;96957.09;;;0.83;80.72
43155;BME280;34212;51.018;13.586;2024-01-16T20:31:46;96958.19;;;0.80;80.29
43155;BME280;34212;51.018;13.586;2024-01-16T20:36:48;96951.41;;;0.78;80.42
43155;BME280;34212;51.018;13.586;2024-01-16T20:41:56;96951.56;;;0.76;80.51
43155;BME280;34212;51.018;13.586;2024-01-16T20:46:59;96950.88;;;0.74;80.04
43155;BME280;34212;51.018;13.586;2024-01-16T20:52:01;96958.91;;;0.73;80.30
43155;BME280;34212;51.018;13.586;2024-01-16T20:57:03;96955.56;;;0.71;79.96
43155;BME280;34212;51.018;13.586;2024-01-16T21:02:05;96953.22;;;0.67;79.60
43155;BME280;34212;51.018;13.586;2024-01-16T21:07:06;96941.22;;;0.65;79.98
43155;BME280;34212;51.018;13.586;2024-01-16T21:12:08;96939.56;;;0.64;79.94
43155;BME280;34212;51.018;13.586;2024-01-16T21:17:10;96944.00;;;0.63;80.13
43155;BME280;34212;51.018;13.586;2024-01-16T21:22:11;96939.84;;;0.61;79.49
43155;BME280;34212;51.018;13.586;2024-01-16T21:27:18;96947.00;;;0.59;79.64
43155;BME280;34212;51.018;13.586;2024-01-16T21:32:20;96940.13;;;0.58;79.69
43155;BME280;34212;51.018;13.586;2024-01-16T21:37:21;96931.53;;;0.56;79.51
43155;BME280;34212;51.018;13.586;2024-01-16T21:42:23;96938.47;;;0.57;79.43
43155;BME280;34212;51.018;13.586;2024-01-16T21:47:25;96928.09;;;0.55;78.91
43155;BME280;34212;51.018;13.586;2024-01-16T21:52:26;96924.66;;;0.55;78.88
43155;BME280;34212;51.018;13.586;2024-01-16T21:57:28;96936.94;;;0.54;78.74
43155;BME280;34212;51.018;13.586;2024-01-16T22:02:32;96928.25;;;0.54;78.56
43155;BME280;34212;51.018;13.586;2024-01-16T22:07:35;96936.25;;;0.52;78.44
43155;BME280;34212;51.018;13.586;2024-01-16T22:12:36;96935.44;;;0.52;78.83
43155;BME280;34212;51.018;13.586;2024-01-16T22:17:38;96937.78;;;0.55;79.57
43155;BME280;34212;51.018;13.586;2024-01-16T22:22:40;96927.16;;;0.56;79.27
43155;BME280;34212;51.018;13.586;2024-01-16T22:27:42;96922.72;;;0.57;78.70
43155;BME280;34212;51.018;13.586;2024-01-16T22:32:43;96915.13;;;0.54;78.40
43155;BME280;34212;51.018;13.586;2024-01-16T22:37:45;96908.50;;;0.50;78.12
43155;BME280;34212;51.018;13.586;2024-01-16T22:42:50;96902.56;;;0.48;78.20
43155;BME280;34212;51.018;13.586;2024-01-16T22:47:51;96895.53;;;0.48;78.45
43155;BME280;34212;51.018;13.586;2024-01-16T22:52:54;96881.59;;;0.48;77.88
43155;BME280;34212;51.018;13.586;2024-01-16T22:57:55;96866.94;;;0.45;77.97
43155;BME280;34212;51.018;13.586;2024-01-16T23:02:57;96853.94;;;0.43;77.49
43155;BME280;34212;51.018;13.586;2024-01-16T23:07:59;96847.06;;;0.42;77.37
43155;BME280;34212;51.018;13.586;2024-01-16T23:13:00;96833.25;;;0.40;77.54
43155;BME280;34212;51.018;13.586;2024-01-16T23:18:02;96824.72;;;0.38;76.92
43155;BME280;34212;51.018;13.586;2024-01-16T23:23:07;96810.06;;;0.36;76.61
43155;BME280;34212;51.018;13.586;2024-01-16T23:28:13;96798.75;;;0.35;76.82
43155;BME280;34212;51.018;13.586;2024-01-16T23:33:14;96780.13;;;0.38;77.29
43155;BME280;34212;51.018;13.586;2024-01-16T23:38:16;96768.66;;;0.39;77.50
43155;BME280;34212;51.018;13.586;2024-01-16T23:43:18;96759.53;;;0.43;77.33
43155;BME280;34212;51.018;13.586;2024-01-16T23:48:20;96751.53;;;0.45;77.32
43155;BME280;34212;51.018;13.586;2024-01-16T23:53:22;96750.00;;;0.42;77.20
43155;BME280;34212;51.018;13.586;2024-01-16T23:58:24;96756.22;;;0.41;76.82
